Cumberland, Ohio
Current Conditions -  °F | °C
As of 10:53 PM on Friday 24 Oct 2014 (Local Time) from KZZV Reporting Station
Clear Clear  
Wind Chill: 44°   Ceiling: Unl
Heat Index: 44°   Visibility: 10mi
Dew Point: 38°   Wind: 0mph
Humidity: 79%   Direction: NA
Pressure: 30.03"   Gusts: NA
Location:  39.85°N, 81.66°W
Report Text: KZZV 250253Z AUTO 00000KT 10SM CLR 07/03 A3003 RMK AO2 SLP172 T00670033 53000
Loading
Personal Weather Stations






























Interactive Weather Map
Tropical Storm Tracking
New forecast layout! Learn more

10-Day Weather Forecast

Advertisements
Track Severe Weather on mobile